Time;durP1;ratioP1;P1;durP2;ratioP2;P2;SDS_P1;SDS_P2;PMS_P1;PMS_P2;Temp;Humidity;BMP_temperature;BMP_pressure;BME280_temperature;BME280_humidity;BME280_pressure;Samples;Min_cycle;Max_cycle;Signal;HPM_P1;HPM_P2
2023/01/01 00:02:23;;;;;;;7.15;2.00;;;;;;;15.10;86.35;99961.56;5054329;28;20452;-62
2023/01/01 00:04:48;;;;;;;5.50;2.50;;;;;;;15.08;86.53;99964.31;5054654;28;20025;-62
2023/01/01 00:07:14;;;;;;;5.82;2.50;;;;;;;15.00;86.28;99956.13;5048047;28;20072;-63
2023/01/01 00:12:23;;;;;;;6.03;2.13;;;;;;;14.80;87.95;99970.81;5039406;28;20048;-62
2023/01/01 00:14:48;;;;;;;5.45;2.05;;;;;;;14.75;89.43;99970.34;5054522;28;20263;-62
2023/01/01 00:17:14;;;;;;;10.00;2.72;;;;;;;14.68;87.76;99961.16;5054406;28;20021;-62
2023/01/01 00:19:39;;;;;;;6.60;2.40;;;;;;;14.66;87.85;99964.91;5054114;28;20534;-62
2023/01/01 00:22:04;;;;;;;7.82;2.42;;;;;;;14.75;87.50;99977.44;5053756;28;20055;-62
2023/01/01 00:24:30;;;;;;;6.45;2.38;;;;;;;14.61;86.35;99953.78;5054337;28;20101;-62
2023/01/01 00:26:55;;;;;;;7.60;2.45;;;;;;;14.68;85.59;99973.53;5044561;28;20498;-62
2023/01/01 00:29:21;;;;;;;5.78;2.10;;;;;;;14.74;85.32;99976.56;5054078;28;20033;-62
2023/01/01 00:31:46;;;;;;;4.25;1.90;;;;;;;14.67;84.98;99937.47;5053407;28;20075;-62
2023/01/01 00:34:11;;;;;;;6.03;2.35;;;;;;;14.80;84.22;99972.66;5050371;28;20454;-62
2023/01/01 00:36:37;;;;;;;6.63;2.58;;;;;;;14.70;85.35;99969.81;5053598;28;20033;-62
2023/01/01 00:39:03;;;;;;;6.35;2.00;;;;;;;14.50;85.09;99940.53;5032242;28;20035;-63
2023/01/01 00:41:28;;;;;;;5.50;1.92;;;;;;;14.50;85.74;99951.94;5051262;28;20033;-63
2023/01/01 00:43:53;;;;;;;11.73;2.25;;;;;;;14.67;84.24;99979.78;5050591;28;20037;-63
2023/01/01 00:46:19;;;;;;;6.78;2.10;;;;;;;14.57;85.66;99963.75;5054019;28;20029;-63
2023/01/01 00:48:44;;;;;;;6.35;2.00;;;;;;;14.63;85.29;99973.06;5052741;28;20021;-62
2023/01/01 00:51:10;;;;;;;6.35;1.65;;;;;;;14.50;85.91;99964.34;5053754;28;20024;-63
2023/01/01 00:53:35;;;;;;;8.35;2.30;;;;;;;14.54;84.72;99979.84;5038975;28;20033;-63
2023/01/01 00:56:01;;;;;;;6.68;2.50;;;;;;;14.48;83.55;99958.31;5053473;28;20078;-62
2023/01/01 00:58:26;;;;;;;5.50;2.20;;;;;;;14.44;84.47;99957.69;5068924;28;20025;-63
2023/01/01 01:00:54;;;;;;;3.53;1.77;;;;;;;14.51;84.20;99960.72;5042593;28;20032;-62
2023/01/01 01:03:29;;;;;;;6.70;2.08;;;;;;;14.45;85.17;99967.31;5052815;28;20037;-63
2023/01/01 01:05:54;;;;;;;5.28;2.00;;;;;;;14.45;83.50;99974.38;5053025;28;20391;-62
2023/01/01 01:08:20;;;;;;;5.47;1.73;;;;;;;14.42;84.72;99972.81;5053511;28;20033;-62
2023/01/01 01:10:45;;;;;;;7.18;1.67;;;;;;;14.33;85.04;99976.97;5047321;28;20087;-62
2023/01/01 01:13:10;;;;;;;10.70;2.03;;;;;;;14.33;83.87;99982.25;5051677;28;20451;-62
2023/01/01 01:15:37;;;;;;;4.28;1.85;;;;;;;14.39;84.86;99990.69;5053043;28;20020;-62
2023/01/01 01:18:02;;;;;;;14.27;2.55;;;;;;;14.43;83.74;99981.59;5051015;28;20368;-62
2023/01/01 01:20:28;;;;;;;8.57;2.03;;;;;;;14.46;83.00;99986.66;5053074;28;20092;-62
2023/01/01 01:22:53;;;;;;;5.53;1.85;;;;;;;14.45;84.18;100001.69;5026559;28;20896;-63
2023/01/01 01:25:19;;;;;;;6.72;2.15;;;;;;;14.44;83.40;99988.56;5027271;28;20028;-62
2023/01/01 01:27:44;;;;;;;4.95;2.00;;;;;;;14.41;84.07;99994.91;5046021;28;20028;-63
2023/01/01 01:30:10;;;;;;;4.68;1.65;;;;;;;14.39;83.26;99969.56;5040070;28;21298;-62
2023/01/01 01:32:35;;;;;;;6.20;2.17;;;;;;;14.44;83.00;99980.63;5053136;28;20033;-62
2023/01/01 01:35:00;;;;;;;5.25;1.70;;;;;;;14.45;84.26;99979.69;5052340;28;20036;-62
2023/01/01 01:37:26;;;;;;;3.97;1.80;;;;;;;14.32;84.30;99980.53;5053170;28;20430;-62
2023/01/01 01:39:51;;;;;;;4.75;2.15;;;;;;;14.35;83.85;99982.16;5052507;28;20036;-62
2023/01/01 01:42:17;;;;;;;4.45;1.90;;;;;;;14.43;84.16;99997.47;5049833;28;20047;-63
2023/01/01 01:44:48;;;;;;;4.72;2.05;;;;;;;14.43;84.50;100000.09;5052231;28;20035;-62
2023/01/01 01:47:25;;;;;;;4.20;1.73;;;;;;;14.11;84.06;99946.88;5047465;28;20033;-62
2023/01/01 01:49:55;;;;;;;6.93;2.03;;;;;;;14.47;84.80;100004.19;5052747;28;20025;-62
2023/01/01 01:52:21;;;;;;;5.28;1.92;;;;;;;14.42;85.24;100011.63;5052461;28;20167;-62
2023/01/01 01:54:46;;;;;;;5.30;1.73;;;;;;;14.33;85.34;100011.31;5051253;28;20120;-63
2023/01/01 01:57:12;;;;;;;9.15;2.13;;;;;;;14.32;84.99;100006.13;5052378;28;20345;-62
2023/01/01 01:59:42;;;;;;;12.80;2.03;;;;;;;14.31;85.39;100010.56;5046260;28;20037;-63
2023/01/01 02:02:25;;;;;;;4.45;1.70;;;;;;;14.39;84.43;100023.28;5046490;28;20032;-62
2023/01/01 02:04:51;;;;;;;12.55;2.95;;;;;;;14.32;85.79;100017.56;5033657;28;20047;-61
2023/01/01 02:07:17;;;;;;;12.43;2.60;;;;;;;14.43;84.69;100026.53;5051649;28;20542;-62
2023/01/01 02:09:42;;;;;;;3.03;1.20;;;;;;;14.42;85.72;100030.13;5038043;28;20033;-62
2023/01/01 02:12:08;;;;;;;4.90;2.00;;;;;;;14.40;86.45;100042.63;5052504;28;20022;-62
2023/01/01 02:14:33;;;;;;;5.45;1.98;;;;;;;14.24;88.32;100014.59;5033352;28;20057;-62
2023/01/01 02:17:19;;;;;;;9.52;2.45;;;;;;;14.33;87.74;100024.53;5052206;28;20408;-62
2023/01/01 02:20:10;;;;;;;5.88;2.47;;;;;;;14.15;86.02;99990.63;5033000;28;20379;-62
2023/01/01 02:22:36;;;;;;;18.63;2.47;;;;;;;14.33;88.09;100032.47;5048592;28;20438;-62
2023/01/01 02:25:21;;;;;;;3.47;1.38;;;;;;;14.36;88.80;100022.66;5052490;28;20099;-62
2023/01/01 02:27:57;;;;;;;8.35;1.50;;;;;;;14.37;88.08;100029.59;5040733;28;20067;-62
2023/01/01 02:30:23;;;;;;;8.95;1.92;;;;;;;14.32;89.37;100028.13;4987476;28;20024;-63
2023/01/01 02:33:19;;;;;;;6.72;1.55;;;;;;;14.33;89.34;100024.53;5008021;28;20124;-63
2023/01/01 02:35:49;;;;;;;4.82;1.63;;;;;;;14.09;91.20;99994.53;4976920;28;20905;-62
2023/01/01 02:38:24;;;;;;;7.95;1.98;;;;;;;14.21;90.87;100030.69;4989005;28;20024;-62
2023/01/01 02:40:56;;;;;;;6.38;1.67;;;;;;;14.27;90.55;100039.97;5022841;28;20090;-62
2023/01/01 02:43:22;;;;;;;3.92;1.45;;;;;;;14.25;92.88;100042.72;5033913;28;20087;-62
2023/01/01 02:45:47;;;;;;;4.13;1.77;;;;;;;14.22;92.96;100047.38;5052044;28;20024;-62
2023/01/01 02:48:39;;;;;;;3.13;1.40;;;;;;;14.27;92.49;100045.25;5034145;28;20103;-62
2023/01/01 02:51:12;;;;;;;3.78;1.67;;;;;;;14.23;92.16;100049.06;5047106;28;20395;-62
2023/01/01 02:53:45;;;;;;;4.05;1.67;;;;;;;14.22;94.57;100056.16;5052209;28;20060;-62
2023/01/01 02:56:37;;;;;;;6.57;1.90;;;;;;;14.20;96.86;100060.69;5032095;28;20036;-62
2023/01/01 03:02:22;;;;;;;11.25;2.00;;;;;;;13.95;100.00;100071.31;5033128;28;20028;-62
2023/01/01 03:04:54;;;;;;;3.30;1.52;;;;;;;13.94;100.00;100079.31;5052461;28;20087;-62
2023/01/01 03:07:32;;;;;;;3.72;1.92;;;;;;;13.95;100.00;100060.72;5027383;28;20025;-62
2023/01/01 03:10:04;;;;;;;7.65;1.67;;;;;;;13.99;100.00;100067.47;5051567;28;20048;-62
2023/01/01 03:12:44;;;;;;;5.03;1.65;;;;;;;13.91;100.00;100032.84;5055660;28;20043;-62
2023/01/01 03:15:09;;;;;;;6.68;1.73;;;;;;;14.05;100.00;100051.22;5045456;28;20040;-62
2023/01/01 03:17:38;;;;;;;3.53;1.63;;;;;;;14.02;100.00;100062.00;5048351;28;20028;-63
2023/01/01 03:20:09;;;;;;;5.45;1.55;;;;;;;14.00;100.00;100063.03;5029920;28;20395;-62
2023/01/01 03:22:36;;;;;;;5.05;1.77;;;;;;;14.02;100.00;100059.34;5037657;28;20087;-62
2023/01/01 03:25:08;;;;;;;6.50;2.15;;;;;;;14.01;100.00;100064.72;5036333;28;20021;-62
2023/01/01 03:27:37;;;;;;;5.72;1.80;;;;;;;13.97;100.00;100071.19;5037770;28;20036;-62
2023/01/01 03:30:07;;;;;;;3.80;1.85;;;;;;;14.00;100.00;100071.81;5024778;28;20052;-63
2023/01/01 03:35:42;;;;;;;;;;;;;;;14.05;100.00;100068.84;5052338;28;20039;-62
2023/01/01 03:38:19;;;;;;;8.80;2.28;;;;;;;13.94;100.00;100059.03;5017700;28;19909;-62
2023/01/01 03:40:46;;;;;;;6.65;1.85;;;;;;;13.98;100.00;100055.22;5050074;28;20391;-62
2023/01/01 03:43:16;;;;;;;5.97;2.00;;;;;;;14.08;100.00;100072.13;5054510;28;20391;-62
2023/01/01 03:45:43;;;;;;;5.05;1.60;;;;;;;14.11;100.00;100074.56;5036719;28;20021;-62
2023/01/01 03:48:09;;;;;;;10.95;2.17;;;;;;;14.13;100.00;100083.22;5037238;28;20029;-62
2023/01/01 03:51:28;;;;;;;8.45;2.30;;;;;;;14.11;100.00;100074.56;5053661;28;20029;-62
2023/01/01 03:53:56;;;;;;;2.72;1.55;;;;;;;14.10;100.00;100070.22;4954457;29;20035;-62
2023/01/01 03:56:45;;;;;;;4.75;1.90;;;;;;;14.07;100.00;100075.72;5022103;28;20064;-62
2023/01/01 03:59:15;;;;;;;5.90;2.30;;;;;;;14.06;100.00;100079.31;5015715;28;20476;-62
2023/01/01 04:01:45;;;;;;;12.05;2.20;;;;;;;13.85;100.00;100043.84;5049613;28;20029;-62
2023/01/01 04:04:11;;;;;;;6.82;1.80;;;;;;;14.11;100.00;100093.06;5027493;28;20041;-62
2023/01/01 04:06:36;;;;;;;3.60;1.42;;;;;;;14.07;100.00;100086.28;5031339;28;20025;-62
2023/01/01 04:09:02;;;;;;;6.30;2.28;;;;;;;14.04;100.00;100075.09;5054535;28;20028;-62
2023/01/01 04:14:35;;;;;;;7.03;2.03;;;;;;;13.97;100.00;100073.81;5043083;28;20562;-63
2023/01/01 04:17:01;;;;;;;9.57;2.22;;;;;;;14.10;100.00;100095.78;5053346;28;20460;-62
2023/01/01 04:19:27;;;;;;;6.40;2.70;;;;;;;14.08;100.00;100116.19;5054419;28;20029;-62
2023/01/01 04:21:53;;;;;;;4.97;1.52;;;;;;;14.08;100.00;100097.69;5053291;28;20040;-62
2023/01/01 04:24:19;;;;;;;3.95;1.63;;;;;;;14.09;100.00;100105.50;5054294;28;20037;-62
2023/01/01 04:26:44;;;;;;;7.35;2.15;;;;;;;14.03;100.00;100090.09;5053984;28;20021;-62
2023/01/01 04:29:10;;;;;;;6.07;2.55;;;;;;;13.89;100.00;100066.41;5053916;28;20039;-62
2023/01/01 04:31:35;;;;;;;4.78;1.75;;;;;;;13.96;100.00;100080.88;5053845;28;20040;-62
2023/01/01 04:34:01;;;;;;;4.30;1.83;;;;;;;13.96;100.00;100093.28;5035922;28;20039;-62
2023/01/01 04:36:26;;;;;;;6.70;1.90;;;;;;;13.96;100.00;100086.19;5052912;28;20794;-62
2023/01/01 04:38:52;;;;;;;11.43;1.70;;;;;;;13.97;100.00;100095.81;5053580;28;20112;-61
2023/01/01 04:41:18;;;;;;;6.70;2.35;;;;;;;13.96;100.00;100066.88;5048171;28;20028;-62
2023/01/01 04:43:49;;;;;;;4.53;1.75;;;;;;;13.87;100.00;100055.13;5042490;28;20040;-62
2023/01/01 04:46:15;;;;;;;5.05;1.73;;;;;;;13.86;100.00;100073.75;5053895;28;20029;-62
2023/01/01 04:48:41;;;;;;;4.97;1.95;;;;;;;13.71;100.00;100063.25;5035975;28;20063;-62
2023/01/01 04:51:08;;;;;;;6.97;1.75;;;;;;;13.73;100.00;100068.44;5053854;28;20048;-62
2023/01/01 04:53:34;;;;;;;5.55;2.22;;;;;;;13.74;100.00;100093.91;5035550;28;20167;-62
2023/01/01 04:56:04;;;;;;;9.85;2.00;;;;;;;13.73;100.00;100100.13;5053641;28;20020;-61
2023/01/01 04:58:30;;;;;;;10.70;2.08;;;;;;;13.75;100.00;100101.69;5053279;28;20095;-61
2023/01/01 05:00:56;;;;;;;4.53;1.95;;;;;;;13.78;100.00;100111.22;5044693;28;20494;-62
2023/01/01 05:03:21;;;;;;;6.90;1.98;;;;;;;13.70;100.00;100098.53;5049559;28;20017;-62
2023/01/01 05:05:48;;;;;;;8.23;2.30;;;;;;;13.74;100.00;100104.47;5053377;28;20025;-62
2023/01/01 05:08:14;;;;;;;8.40;1.75;;;;;;;13.72;100.00;100099.25;5052999;28;20024;-62
2023/01/01 05:10:39;;;;;;;5.55;2.30;;;;;;;13.71;100.00;100104.66;5053286;28;20036;-62
2023/01/01 05:13:07;;;;;;;6.45;2.13;;;;;;;13.70;100.00;100111.75;5053032;28;20078;-62
2023/01/01 05:15:34;;;;;;;4.47;1.75;;;;;;;13.76;100.00;100121.88;5051598;28;20502;-62
2023/01/01 05:18:00;;;;;;;4.50;2.13;;;;;;;13.80;100.00;100127.81;5052840;28;20029;-62
2023/01/01 05:20:25;;;;;;;6.70;2.53;;;;;;;13.69;100.00;100080.16;5053374;28;20051;-62
2023/01/01 05:22:51;;;;;;;6.10;1.75;;;;;;;13.83;100.00;100109.09;5052857;28;20029;-63
2023/01/01 05:25:16;;;;;;;8.32;2.53;;;;;;;13.81;100.00;100124.22;5052480;28;20025;-63
2023/01/01 05:27:41;;;;;;;7.22;2.80;;;;;;;13.77;100.00;100126.22;5053395;28;20025;-62
2023/01/01 05:30:07;;;;;;;9.88;2.28;;;;;;;13.71;100.00;100136.34;5052711;28;20029;-62
2023/01/01 05:32:35;;;;;;;7.00;2.60;;;;;;;13.71;100.00;100146.91;5053154;28;20036;-62
2023/01/01 05:35:01;;;;;;;7.53;2.45;;;;;;;13.69;100.00;100144.38;5052077;28;20507;-63
2023/01/01 05:37:26;;;;;;;12.13;2.33;;;;;;;13.73;100.00;100158.22;5052796;28;20104;-62
2023/01/01 05:39:52;;;;;;;5.47;1.98;;;;;;;13.78;100.00;100164.03;5051695;28;20036;-61
2023/01/01 05:42:17;;;;;;;8.50;1.90;;;;;;;13.75;100.00;100164.25;5052476;28;20043;-61
2023/01/01 05:44:43;;;;;;;6.07;1.98;;;;;;;13.74;100.00;100167.84;5053233;28;20052;-61
2023/01/01 05:47:08;;;;;;;7.45;2.15;;;;;;;13.75;100.00;100162.44;5051502;28;20139;-62
2023/01/01 05:49:35;;;;;;;4.00;2.13;;;;;;;13.65;100.00;100152.63;5049040;28;20029;-61
2023/01/01 05:52:00;;;;;;;4.07;1.75;;;;;;;13.75;100.00;100180.09;5047725;28;20052;-62
2023/01/01 05:54:26;;;;;;;5.20;2.47;;;;;;;13.76;100.00;100166.78;5044382;28;20483;-62
2023/01/01 05:56:51;;;;;;;5.45;2.33;;;;;;;13.74;100.00;100189.81;5050508;28;20032;-62
2023/01/01 05:59:17;;;;;;;9.65;1.95;;;;;;;13.49;100.00;100168.59;5051004;28;20029;-62
2023/01/01 06:01:42;;;;;;;5.93;2.30;;;;;;;13.71;100.00;100213.78;5052534;28;20415;-62
2023/01/01 06:04:08;;;;;;;11.75;2.15;;;;;;;13.72;100.00;100183.75;5052196;28;20025;-62
2023/01/01 06:06:33;;;;;;;4.95;2.55;;;;;;;13.71;100.00;100194.44;5052380;28;20047;-62
2023/01/01 06:09:01;;;;;;;4.03;1.90;;;;;;;13.70;100.00;100198.03;5051374;28;20078;-62
2023/01/01 06:11:27;;;;;;;4.50;2.03;;;;;;;13.73;100.00;100200.47;5048988;28;20029;-62
2023/01/01 06:13:54;;;;;;;4.40;2.28;;;;;;;13.63;100.00;100202.88;5051844;28;20021;-62
2023/01/01 06:16:20;;;;;;;4.72;1.98;;;;;;;13.63;100.00;100217.84;5052440;28;20479;-63
2023/01/01 06:18:45;;;;;;;5.13;2.03;;;;;;;13.27;100.00;100153.34;5052334;28;20028;-62
2023/01/01 06:21:17;;;;;;;7.63;2.17;;;;;;;13.54;100.00;100207.91;5052266;28;20099;-62
2023/01/01 06:23:42;;;;;;;6.55;1.92;;;;;;;13.36;100.00;100182.69;5051906;28;20039;-62
2023/01/01 06:26:09;;;;;;;5.65;2.40;;;;;;;13.59;100.00;100211.06;5051746;28;20383;-62
2023/01/01 06:28:34;;;;;;;5.35;2.40;;;;;;;13.53;100.00;100216.78;5051292;28;20493;-62
2023/01/01 06:31:01;;;;;;;4.32;1.88;;;;;;;13.49;100.00;100217.91;5063783;28;20064;-61
2023/01/01 06:33:28;;;;;;;10.60;2.45;;;;;;;13.41;100.00;100214.94;5052157;28;20033;-62
2023/01/01 06:35:53;;;;;;;5.97;2.35;;;;;;;13.38;100.00;100236.25;5042447;28;20025;-62
2023/01/01 06:38:18;;;;;;;6.78;2.55;;;;;;;13.34;100.00;100237.38;5043244;28;20049;-62
2023/01/01 06:40:54;;;;;;;6.93;2.40;;;;;;;13.16;100.00;100218.28;5047117;28;20040;-62
2023/01/01 06:43:19;;;;;;;9.77;3.00;;;;;;;12.95;100.00;100201.16;5052234;28;20083;-62
2023/01/01 06:45:45;;;;;;;5.50;2.30;;;;;;;13.29;100.00;100257.00;5053217;28;20033;-62
2023/01/01 06:48:10;;;;;;;8.40;2.75;;;;;;;13.28;100.00;100260.56;5056083;28;20119;-61
2023/01/01 06:50:35;;;;;;;4.57;2.38;;;;;;;12.99;100.00;100231.66;5056013;28;20039;-62
2023/01/01 06:53:01;;;;;;;6.47;2.20;;;;;;;13.19;100.00;100271.72;5055579;28;20048;-62
2023/01/01 06:55:26;;;;;;;7.15;2.42;;;;;;;13.14;100.00;100284.38;5055837;28;20026;-61
2023/01/01 06:57:52;;;;;;;5.95;2.13;;;;;;;12.99;100.00;100287.91;5055900;28;20114;-62
2023/01/01 07:00:17;;;;;;;8.13;2.63;;;;;;;12.88;100.00;100298.25;5055264;28;20112;-61
2023/01/01 07:02:42;;;;;;;6.30;2.85;;;;;;;12.69;100.00;100303.81;5056331;28;20032;-61
2023/01/01 07:05:08;;;;;;;8.43;2.50;;;;;;;12.63;100.00;100298.91;5054128;28;20047;-62
2023/01/01 07:07:33;;;;;;;7.10;2.70;;;;;;;12.58;100.00;100294.84;5055894;28;20079;-61
2023/01/01 07:09:59;;;;;;;5.15;2.25;;;;;;;12.52;100.00;100290.81;5055708;28;20040;-61
2023/01/01 07:12:24;;;;;;;7.15;2.60;;;;;;;12.57;100.00;100287.91;5055189;28;20057;-61
2023/01/01 07:14:49;;;;;;;8.07;2.83;;;;;;;12.47;100.00;100281.47;5049558;28;20041;-61
2023/01/01 07:17:15;;;;;;;5.03;2.67;;;;;;;12.49;100.00;100298.03;5055240;28;20068;-61
2023/01/01 07:19:40;;;;;;;5.63;1.92;;;;;;;12.40;100.00;100264.34;5053980;28;20036;-62
2023/01/01 07:22:08;;;;;;;7.75;2.58;;;;;;;12.53;100.00;100281.09;5053531;28;20136;-61
2023/01/01 07:24:34;;;;;;;8.15;2.55;;;;;;;12.61;100.00;100307.84;5070066;28;20510;-61
2023/01/01 07:26:59;;;;;;;8.00;2.47;;;;;;;12.67;100.00;100315.41;5052540;28;20029;-61
2023/01/01 07:29:24;;;;;;;10.95;3.08;;;;;;;12.72;100.00;100323.88;5040463;28;20025;-62
2023/01/01 07:31:50;;;;;;;10.98;2.88;;;;;;;12.69;100.00;100313.50;5055114;28;20108;-61
2023/01/01 07:34:18;;;;;;;9.30;3.22;;;;;;;12.76;100.00;100325.38;5055468;28;20037;-62
2023/01/01 07:36:44;;;;;;;6.85;2.78;;;;;;;12.62;100.00;100330.63;5037836;28;20033;-61
2023/01/01 07:39:09;;;;;;;8.05;3.20;;;;;;;12.72;100.00;100351.09;5055418;28;20115;-63
2023/01/01 07:41:35;;;;;;;10.05;2.80;;;;;;;12.76;100.00;100349.13;5051112;28;20187;-62
2023/01/01 07:44:00;;;;;;;5.28;2.15;;;;;;;12.77;100.00;100345.53;5053634;28;20036;-61
2023/01/01 07:46:26;;;;;;;4.63;2.15;;;;;;;12.68;100.00;100333.75;5036917;28;20532;-62
2023/01/01 07:48:51;;;;;;;12.27;3.63;;;;;;;12.81;100.00;100365.50;5054355;28;20483;-61
2023/01/01 07:51:17;;;;;;;8.77;2.80;;;;;;;12.80;100.00;100363.81;5035121;28;20089;-62
2023/01/01 07:53:42;;;;;;;6.53;2.25;;;;;;;12.78;100.00;100370.94;5054601;28;20032;-62
2023/01/01 07:56:08;;;;;;;9.45;2.58;;;;;;;12.79;100.00;100372.66;5054523;28;20021;-62
2023/01/01 07:58:34;;;;;;;6.30;2.55;;;;;;;12.73;100.00;100373.03;5035972;28;20025;-61
2023/01/01 08:00:59;;;;;;;8.07;2.75;;;;;;;12.73;100.00;100351.94;5043317;28;20099;-61
2023/01/01 08:03:24;;;;;;;7.30;2.53;;;;;;;12.80;100.00;100362.03;5054216;28;20348;-62
2023/01/01 08:05:51;;;;;;;8.05;2.65;;;;;;;12.58;100.00;100327.31;5054547;28;20107;-60
2023/01/01 08:08:16;;;;;;;7.15;2.58;;;;;;;12.55;100.00;100321.38;5054318;28;20108;-62
2023/01/01 08:10:41;;;;;;;6.10;2.65;;;;;;;12.69;100.00;100361.81;5054657;28;20055;-62
2023/01/01 08:13:07;;;;;;;7.00;3.35;;;;;;;12.73;100.00;100380.94;5054068;28;20029;-62
2023/01/01 08:15:33;;;;;;;5.63;2.67;;;;;;;12.59;100.00;100362.44;5054070;28;20452;-62
2023/01/01 08:18:01;;;;;;;7.32;2.80;;;;;;;12.75;100.00;100386.97;5053892;28;20833;-62
2023/01/01 08:20:28;;;;;;;5.10;2.20;;;;;;;12.63;100.00;100377.16;5052606;28;20040;-62
2023/01/01 08:22:53;;;;;;;13.38;3.05;;;;;;;12.44;100.00;100347.53;5054107;28;20048;-61
2023/01/01 08:25:19;;;;;;;7.60;2.88;;;;;;;12.82;100.00;100422.56;5038554;28;20870;-62
2023/01/01 08:27:45;;;;;;;6.72;2.80;;;;;;;12.85;100.00;100430.31;5036632;28;20115;-62
2023/01/01 08:30:12;;;;;;;6.30;2.97;;;;;;;12.88;100.00;100429.25;5049389;28;20025;-62
2023/01/01 08:32:37;;;;;;;8.98;2.90;;;;;;;12.86;100.00;100415.34;5053796;28;20029;-63
2023/01/01 08:35:03;;;;;;;6.55;2.38;;;;;;;12.88;100.00;100409.03;5054541;28;20077;-62
2023/01/01 08:37:29;;;;;;;5.93;2.13;;;;;;;12.87;100.00;100415.25;5054141;28;20036;-62
2023/01/01 08:39:54;;;;;;;13.18;3.00;;;;;;;12.89;100.00;100421.28;5053431;28;20025;-61
2023/01/01 08:42:20;;;;;;;7.88;3.10;;;;;;;12.87;100.00;100440.78;5053372;28;20033;-62
2023/01/01 08:44:45;;;;;;;7.47;2.97;;;;;;;12.92;100.00;100431.63;5053864;28;20052;-62
2023/01/01 08:47:22;;;;;;;7.25;2.67;;;;;;;12.95;100.00;100447.28;5035668;28;20032;-61
2023/01/01 08:49:47;;;;;;;4.93;2.17;;;;;;;12.84;100.00;100433.91;5053649;28;20099;-62
2023/01/01 08:52:13;;;;;;;4.97;2.58;;;;;;;12.59;100.00;100391.44;5047979;28;20191;-62
2023/01/01 08:54:38;;;;;;;6.35;2.53;;;;;;;12.98;100.00;100451.56;5054203;28;20029;-62
2023/01/01 08:57:04;;;;;;;7.45;2.80;;;;;;;12.97;100.00;100463.03;5053793;28;20551;-62
2023/01/01 08:59:29;;;;;;;10.30;3.25;;;;;;;12.94;100.00;100450.88;5053565;28;20403;-61
2023/01/01 09:01:55;;;;;;;9.88;3.30;;;;;;;12.98;100.00;100462.91;5053385;28;20021;-62
2023/01/01 09:04:20;;;;;;;11.95;3.17;;;;;;;13.00;100.00;100450.50;5050872;28;20495;-62
2023/01/01 09:06:45;;;;;;;4.68;2.25;;;;;;;13.06;100.00;100492.34;5030913;28;20035;-62
2023/01/01 09:09:11;;;;;;;5.70;2.15;;;;;;;13.04;100.00;100465.22;4981398;28;20912;-62
2023/01/01 09:11:37;;;;;;;7.63;2.72;;;;;;;13.02;100.00;100464.44;5053301;28;20418;-62
2023/01/01 09:14:02;;;;;;;6.85;2.30;;;;;;;13.03;100.00;100467.94;5053339;28;20108;-62
2023/01/01 09:16:28;;;;;;;6.78;2.58;;;;;;;13.06;100.00;100487.06;5035010;28;20016;-62
2023/01/01 09:18:53;;;;;;;11.68;2.67;;;;;;;13.11;100.00;100477.13;5052984;28;20021;-62
2023/01/01 09:21:18;;;;;;;6.28;2.30;;;;;;;13.14;100.00;100476.09;5053197;28;20033;-62
2023/01/01 09:23:44;;;;;;;8.80;2.80;;;;;;;13.18;100.00;100493.47;5053139;28;20055;-62
2023/01/01 09:26:09;;;;;;;8.52;2.50;;;;;;;13.15;100.00;100483.91;5052737;28;20021;-62
2023/01/01 09:28:36;;;;;;;10.50;3.30;;;;;;;13.20;100.00;100495.06;5052999;28;20480;-62
2023/01/01 09:31:05;;;;;;;4.90;2.28;;;;;;;13.13;100.00;100488.44;5050920;28;20080;-62
2023/01/01 09:33:30;;;;;;;8.90;3.03;;;;;;;13.17;100.00;100497.88;5041902;28;20028;-62
2023/01/01 09:36:11;;;;;;;6.32;2.42;;;;;;;13.11;100.00;100492.94;5052966;28;20029;-62
2023/01/01 09:38:36;;;;;;;6.85;2.22;;;;;;;13.18;100.00;100499.56;5047062;28;20082;-62
2023/01/01 09:41:35;;;;;;;8.20;2.72;;;;;;;13.22;100.00;100498.44;5052428;28;20029;-61
2023/01/01 09:44:05;;;;;;;9.40;2.67;;;;;;;13.22;100.00;100481.75;5052771;28;20037;-62
2023/01/01 09:46:31;;;;;;;6.97;2.72;;;;;;;13.20;100.00;100473.09;5052419;28;20041;-62
2023/01/01 09:48:58;;;;;;;5.22;2.25;;;;;;;13.25;100.00;100478.94;5043085;28;20024;-62
2023/01/01 09:51:30;;;;;;;6.00;2.72;;;;;;;13.29;100.00;100480.44;5065230;28;20053;-62
2023/01/01 09:54:32;;;;;;;5.90;2.92;;;;;;;13.31;100.00;100482.06;5050081;28;20028;-62
2023/01/01 09:56:59;;;;;;;10.98;3.15;;;;;;;13.33;100.00;100503.09;5034221;28;20170;-61
2023/01/01 09:59:25;;;;;;;6.07;2.47;;;;;;;13.34;100.00;100498.66;5048434;28;20059;-62
2023/01/01 10:02:09;;;;;;;16.83;2.42;;;;;;;13.37;100.00;100491.41;5033281;28;20040;-61
2023/01/01 10:04:50;;;;;;;8.10;2.93;;;;;;;13.39;100.00;100491.31;5050338;28;20032;-62
2023/01/01 10:07:33;;;;;;;7.93;2.78;;;;;;;13.44;100.00;100492.75;5049123;28;21248;-62
2023/01/01 10:10:08;;;;;;;7.18;2.85;;;;;;;13.45;100.00;100483.03;5050678;28;20024;-61
2023/01/01 10:12:55;;;;;;;12.43;2.95;;;;;;;13.45;100.00;100472.47;5033891;28;20036;-63
2023/01/01 10:15:24;;;;;;;7.25;2.67;;;;;;;13.48;100.00;100481.06;5052136;28;20029;-62
2023/01/01 10:17:56;;;;;;;8.63;3.00;;;;;;;13.49;100.00;100484.53;5032808;28;20494;-61
2023/01/01 10:20:31;;;;;;;6.20;3.00;;;;;;;13.50;100.00;100481.81;5033176;28;20021;-62
2023/01/01 10:23:18;;;;;;;5.20;2.67;;;;;;;13.55;100.00;100470.97;5033289;28;20453;-64
2023/01/01 10:25:44;;;;;;;9.77;3.22;;;;;;;13.57;100.00;100472.56;5032555;28;20036;-62
2023/01/01 10:28:41;;;;;;;9.25;3.83;;;;;;;13.65;100.00;100470.28;5033778;28;20079;-61
2023/01/01 10:31:18;;;;;;;8.00;2.80;;;;;;;13.64;100.00;100465.13;5051619;28;20040;-59
2023/01/01 10:33:45;;;;;;;7.22;3.05;;;;;;;13.58;100.00;100454.94;5034654;28;20364;-59
2023/01/01 10:36:13;;;;;;;7.60;3.30;;;;;;;13.62;100.00;100478.41;5051655;28;20029;-60
2023/01/01 10:38:39;;;;;;;6.90;2.92;;;;;;;13.65;100.00;100482.66;5033773;28;20428;-62
2023/01/01 10:41:09;;;;;;;7.95;3.30;;;;;;;13.64;100.00;100470.41;5047340;28;20036;-59
2023/01/01 10:43:34;;;;;;;8.63;2.65;;;;;;;13.60;100.00;100471.53;5034236;28;20029;-61
2023/01/01 10:46:01;;;;;;;6.15;2.40;;;;;;;13.68;100.00;100470.13;5046853;28;20027;-61
2023/01/01 10:48:31;;;;;;;11.30;2.80;;;;;;;13.67;100.00;100473.72;5047291;28;20025;-62
2023/01/01 10:51:02;;;;;;;8.60;3.05;;;;;;;13.69;100.00;100479.72;5029583;28;20036;-60
2023/01/01 10:53:30;;;;;;;6.28;2.65;;;;;;;13.72;100.00;100482.19;5048486;28;20108;-62
2023/01/01 10:56:07;;;;;;;7.85;2.75;;;;;;;13.72;100.00;100499.84;5051529;28;20061;-61
2023/01/01 10:58:34;;;;;;;5.40;2.15;;;;;;;13.74;100.00;100500.59;5051450;28;20040;-61
2023/01/01 11:01:01;;;;;;;7.43;2.45;;;;;;;13.74;100.00;100501.44;5051852;28;20519;-60
2023/01/01 11:03:27;;;;;;;7.32;3.42;;;;;;;13.72;100.00;100491.91;5038222;28;20145;-60
2023/01/01 11:06:03;;;;;;;9.30;2.97;;;;;;;13.72;100.00;100482.19;5050188;28;20060;-61
2023/01/01 11:08:30;;;;;;;7.40;2.55;;;;;;;13.74;100.00;100495.31;5050733;28;20043;-62
2023/01/01 11:11:01;;;;;;;7.35;3.22;;;;;;;13.72;100.00;100491.91;5041443;28;20025;-62
2023/01/01 11:13:27;;;;;;;7.65;2.40;;;;;;;13.67;100.00;100493.97;5050689;28;20487;-62
2023/01/01 11:15:52;;;;;;;5.22;2.45;;;;;;;13.47;100.00;100475.88;5050986;28;20017;-61
2023/01/01 11:18:26;;;;;;;7.57;2.65;;;;;;;13.76;100.00;100514.53;5051216;28;20029;-61
2023/01/01 11:20:53;;;;;;;8.30;2.47;;;;;;;13.87;100.00;100527.94;5047876;28;20071;-61
2023/01/01 11:23:22;;;;;;;9.18;2.83;;;;;;;13.94;100.00;100523.97;5019151;28;20029;-62
2023/01/01 11:25:58;;;;;;;8.07;2.92;;;;;;;13.95;100.00;100530.09;5060600;28;20032;-63
2023/01/01 11:28:25;;;;;;;6.53;2.60;;;;;;;13.75;100.00;100483.81;5041589;28;20037;-61
2023/01/01 11:31:05;;;;;;;7.25;3.10;;;;;;;14.04;100.00;100540.94;5047778;28;20036;-63
2023/01/01 11:33:33;;;;;;;9.80;2.50;;;;;;;14.08;100.00;100525.75;5032886;28;20414;-62
2023/01/01 11:35:59;;;;;;;5.57;2.65;;;;;;;14.07;100.00;100529.34;5045331;28;20035;-63
2023/01/01 11:38:25;;;;;;;9.73;2.97;;;;;;;14.07;100.00;100516.97;5026910;28;20032;-62